Bookmark and Share
Track history (hours):
 

Trabzon

Last reported at 2014-Apr-07 11:33 UTC. Time now 2014-Apr-19 07:03 UTC.
Position N 36°53' W 075°53'.
Warning: this ship's position is 11 days out of date.

Length 229 m; draft 14.2 m.

Type: Cargo ship. MMSI: 215679000.

NotesDate/timePositionNaut miles runAvg speedWind from/ knotsBaromVisibWave heightAir tempDewpointWater temp
2014-Apr-07 11:33N 36°53' W 075°53'10 9.8
2014-Apr-07 10:33N 36°58' W 076°04'10 9.9
2014-Apr-07 09:34N 37°00' W 076°16'8 7.9
2014-Apr-07 08:33N 36°58' W 076°26'0 0.1
2014-Apr-07 06:33N 36°58' W 076°25'0 0.0
2014-Apr-07 05:29N 36°58' W 076°25'0 0.0
2014-Apr-07 02:32N 36°58' W 076°25'0 0.0
2014-Apr-07 01:29N 36°58' W 076°25'0 0.0
2014-Apr-07 00:20N 36°58' W 076°25'0 0.0
2014-Apr-06 23:32N 36°58' W 076°25'0 0.0
2014-Apr-06 22:32N 36°58' W 076°25'0 0.0
2014-Apr-06 21:23N 36°58' W 076°25'0 0.0
2014-Apr-06 20:29N 36°58' W 076°25'0 0.0
2014-Apr-06 19:32N 36°58' W 076°25'0 0.0
2014-Apr-06 18:05N 36°58' W 076°25'0 0.0
2014-Apr-06 17:32N 36°58' W 076°25'0 0.0
2014-Apr-06 16:32N 36°58' W 076°25'0 0.0
2014-Apr-06 15:32N 36°58' W 076°25'0 0.0
2014-Apr-06 14:08N 36°58' W 076°25'0 0.0
2014-Apr-06 13:32N 36°58' W 076°25'0 0.0
2014-Apr-06 12:32N 36°58' W 076°25'0 0.0
2014-Apr-06 11:08N 36°58' W 076°25'0 0.0
2014-Apr-06 10:32N 36°58' W 076°25'0 0.0
2014-Apr-06 09:32N 36°58' W 076°25'0 0.0
2014-Apr-06 08:32N 36°58' W 076°25'0 0.0
2014-Apr-06 07:32N 36°58' W 076°25'0 0.0
2014-Apr-06 06:32N 36°58' W 076°25'0 0.0
2014-Apr-06 05:32N 36°58' W 076°25'0 0.0
2014-Apr-06 04:29N 36°58' W 076°25'0 0.0
2014-Apr-06 03:29N 36°58' W 076°25'0 0.0
2014-Apr-06 02:29N 36°58' W 076°25'0 0.0
2014-Apr-06 01:26N 36°58' W 076°25'0 0.0
2014-Apr-06 00:32N 36°58' W 076°25'0 0.0
2014-Apr-05 23:26N 36°58' W 076°25'0 0.0
2014-Apr-05 22:33N 36°58' W 076°25'4 4.2
2014-Apr-05 21:33N 36°58' W 076°20'10 9.9
2014-Apr-05 20:33N 36°59' W 076°08'3 2.8
2014-Apr-05 19:33N 36°58' W 076°04'0 0.1
2014-Apr-05 18:31N 36°58' W 076°05'0 0.1
2014-Apr-05 17:31N 36°58' W 076°05'0 0.1
2014-Apr-05 16:30N 36°58' W 076°05'0 0.1
2014-Apr-05 15:31N 36°58' W 076°04'0 0.0
2014-Apr-05 14:33N 36°58' W 076°04'0 0.0
2014-Apr-05 13:33N 36°58' W 076°04'0 0.0
2014-Apr-05 12:33N 36°58' W 076°04'0 0.1
2014-Apr-05 11:30N 36°58' W 076°04'0 0.0
2014-Apr-05 10:34N 36°58' W 076°04'0 0.0
2014-Apr-05 09:34N 36°58' W 076°04'0 0.2
2014-Apr-05 08:33N 36°58' W 076°04'0 0.0
2014-Apr-05 07:33N 36°58' W 076°04'0 0.0
2014-Apr-05 06:33N 36°58' W 076°05'0 0.0
2014-Apr-05 05:27N 36°58' W 076°04'0 0.0
2014-Apr-05 04:33N 36°58' W 076°05'0 0.0
2014-Apr-05 03:33N 36°58' W 076°05'0 0.0
2014-Apr-05 02:34N 36°58' W 076°05'0 0.2
2014-Apr-05 01:33N 36°58' W 076°04'0 0.0
2014-Apr-05 00:30N 36°58' W 076°04'0 0.0
2014-Apr-04 23:33N 36°58' W 076°04'0 0.1
2014-Apr-04 22:33N 36°58' W 076°04'0 0.1
2014-Apr-04 21:31N 36°58' W 076°04'0 0.1
2014-Apr-04 20:33N 36°58' W 076°04'0 0.1
2014-Apr-04 19:30N 36°58' W 076°05'0 0.0
2014-Apr-04 18:30N 36°58' W 076°05'0 0.0
2014-Apr-04 17:33N 36°58' W 076°05'0 0.0
2014-Apr-04 16:33N 36°58' W 076°05'0 0.0
2014-Apr-04 15:33N 36°58' W 076°05'0 0.2
2014-Apr-04 14:33N 36°58' W 076°04'0 0.1
2014-Apr-04 13:34N 36°58' W 076°04'0 0.0
2014-Apr-04 12:33N 36°58' W 076°04'0 0.0
2014-Apr-04 11:30N 36°58' W 076°04'0 0.1
2014-Apr-04 10:33N 36°58' W 076°04'0 0.1
2014-Apr-04 09:34N 36°58' W 076°04'0 0.3
2014-Apr-04 08:33N 36°58' W 076°05'0 0.1
2014-Apr-04 07:33N 36°58' W 076°05'0 0.0
2014-Apr-04 06:33N 36°58' W 076°05'0 0.0
2014-Apr-04 05:30N 36°58' W 076°05'0 0.0
2014-Apr-04 04:34N 36°58' W 076°05'0 0.0
2014-Apr-04 03:33N 36°58' W 076°05'0 0.0
2014-Apr-04 02:33N 36°58' W 076°05'0 0.1
2014-Apr-04 01:30N 36°58' W 076°05'0 0.2
2014-Apr-04 00:30N 36°58' W 076°04'0 0.1
2014-Apr-03 23:33N 36°58' W 076°04'0 0.0
2014-Apr-03 22:33N 36°58' W 076°04'0 0.0
2014-Apr-03 21:33N 36°58' W 076°04'0 0.0
2014-Apr-03 20:33N 36°58' W 076°04'0 0.0
2014-Apr-03 19:33N 36°58' W 076°04'0 0.2
2014-Apr-03 18:33N 36°58' W 076°04'0 0.1
2014-Apr-03 17:33N 36°58' W 076°05'0 0.0
2014-Apr-03 16:33N 36°58' W 076°05'0 0.0
2014-Apr-03 15:33N 36°58' W 076°05'0 0.1
2014-Apr-03 14:33N 36°58' W 076°05'0 0.1
2014-Apr-03 13:33N 36°58' W 076°04'0 0.1
2014-Apr-03 12:33N 36°58' W 076°04'0 0.0
2014-Apr-03 11:33N 36°58' W 076°04'0 0.0
2014-Apr-03 10:33N 36°58' W 076°04'0 0.0
2014-Apr-03 09:33N 36°58' W 076°04'0 0.0
2014-Apr-03 08:33N 36°58' W 076°04'0 0.2
2014-Apr-03 07:33N 36°58' W 076°04'0 0.1
2014-Apr-03 06:33N 36°58' W 076°05'0 0.0
2014-Apr-03 05:30N 36°58' W 076°05'0 0.0
2014-Apr-03 04:33N 36°58' W 076°05'0 0.0
2014-Apr-03 03:30N 36°58' W 076°05'0 0.0
2014-Apr-03 02:33N 36°58' W 076°05'0 0.0
2014-Apr-03 01:33N 36°58' W 076°05'0 0.1
2014-Apr-03 00:33N 36°58' W 076°04'0 0.1
2014-Apr-02 23:33N 36°58' W 076°04'0 0.0
2014-Apr-02 22:33N 36°58' W 076°04'0 0.0
2014-Apr-02 21:33N 36°58' W 076°04'0 0.0
2014-Apr-02 20:33N 36°58' W 076°04'0 0.0
2014-Apr-02 19:33N 36°58' W 076°04'0 0.0
2014-Apr-02 18:33N 36°58' W 076°04'0 0.1
2014-Apr-02 17:33N 36°58' W 076°04'0 0.2
2014-Apr-02 16:30N 36°58' W 076°05'0 0.0
2014-Apr-02 15:33N 36°58' W 076°05'0 0.1
2014-Apr-02 14:33N 36°58' W 076°05'0 0.0
2014-Apr-02 13:33N 36°58' W 076°05'0 0.2
2014-Apr-02 12:30N 36°58' W 076°04'0 0.1
2014-Apr-02 11:33N 36°58' W 076°04'0 0.0
2014-Apr-02 10:33N 36°58' W 076°04'0 0.0
2014-Apr-02 09:33N 36°58' W 076°04'0 0.0
2014-Apr-02 08:27N 36°58' W 076°04'0 0.0
2014-Apr-02 07:33N 36°58' W 076°04'0 0.2
2014-Apr-02 06:33N 36°58' W 076°04'0 0.1
2014-Apr-02 05:33N 36°58' W 076°05'0 0.0
2014-Apr-02 04:33N 36°58' W 076°05'0 0.0
2014-Apr-02 03:33N 36°58' W 076°05'0 0.0
2014-Apr-02 02:27N 36°58' W 076°05'0 0.0
2014-Apr-02 01:33N 36°58' W 076°05'0 0.1
2014-Apr-02 00:33N 36°58' W 076°05'0 0.0
2014-Apr-01 23:33N 36°58' W 076°05'0 0.2
2014-Apr-01 22:30N 36°58' W 076°04'0 0.0
2014-Apr-01 21:33N 36°58' W 076°04'0 0.0
2014-Apr-01 20:33N 36°58' W 076°04'0 0.0
2014-Apr-01 19:33N 36°58' W 076°04'0 0.0
2014-Apr-01 18:33N 36°58' W 076°04'0 0.3
2014-Apr-01 17:33N 36°58' W 076°05'0 0.1
2014-Apr-01 16:33N 36°58' W 076°05'0 0.0
2014-Apr-01 15:33N 36°58' W 076°05'0 0.0
2014-Apr-01 14:33N 36°58' W 076°05'0 0.0
2014-Apr-01 13:33N 36°58' W 076°05'0 0.1
2014-Apr-01 12:33N 36°58' W 076°05'0 0.1
2014-Apr-01 11:33N 36°58' W 076°04'0 0.1
2014-Apr-01 10:33N 36°58' W 076°04'0 0.0
2014-Apr-01 09:33N 36°58' W 076°04'0 0.0
2014-Apr-01 08:33N 36°58' W 076°04'0 0.0
2014-Apr-01 07:33N 36°58' W 076°04'0 0.0
2014-Apr-01 06:33N 36°58' W 076°04'0 0.2
2014-Apr-01 05:33N 36°58' W 076°05'0 0.1
2014-Apr-01 04:30N 36°58' W 076°05'0 0.0
2014-Apr-01 03:33N 36°58' W 076°05'0 0.0
2014-Apr-01 02:33N 36°58' W 076°05'0 0.0
2014-Apr-01 01:33N 36°58' W 076°05'0 0.0
2014-Apr-01 00:33N 36°58' W 076°05'0 0.0
2014-Mar-31 23:30N 36°58' W 076°05'0 0.2
2014-Mar-31 22:33N 36°58' W 076°05'0 0.2
2014-Mar-31 21:33N 36°58' W 076°04'0 0.0
2014-Mar-31 20:33N 36°58' W 076°04'0 0.0
2014-Mar-31 19:30N 36°58' W 076°04'0 0.0
2014-Mar-31 18:30N 36°58' W 076°04'0 0.1
2014-Mar-31 17:33N 36°58' W 076°04'0 0.1
2014-Mar-31 16:33N 36°58' W 076°04'0 0.1
2014-Mar-31 15:33N 36°58' W 076°05'0 0.0
2014-Mar-31 14:33N 36°58' W 076°05'0 0.0
2014-Mar-31 13:33N 36°58' W 076°05'0 0.1
2014-Mar-31 12:33N 36°58' W 076°05'0 0.1
2014-Mar-31 11:33N 36°58' W 076°04'0 0.0
2014-Mar-31 10:30N 36°58' W 076°04'0 0.1
2014-Mar-31 09:33N 36°58' W 076°04'0 0.0
2014-Mar-31 08:33N 36°58' W 076°04'0 0.0
2014-Mar-31 07:33N 36°58' W 076°04'0 0.0
2014-Mar-31 06:33N 36°58' W 076°04'0 0.0
2014-Mar-31 05:33N 36°58' W 076°04'0 0.0
2014-Mar-31 04:30N 36°58' W 076°04'0 0.0
2014-Mar-31 03:33N 36°58' W 076°04'0 0.0
2014-Mar-31 02:33N 36°58' W 076°04'0 0.1
2014-Mar-31 01:33N 36°58' W 076°04'0 0.0
2014-Mar-31 00:33N 36°58' W 076°04'0 0.0
2014-Mar-30 23:33N 36°58' W 076°04'0 0.0
2014-Mar-30 22:33N 36°58' W 076°04'0 0.0
2014-Mar-30 21:33N 36°58' W 076°04'0 0.0
2014-Mar-30 20:33N 36°58' W 076°04'0 0.0
2014-Mar-30 19:32N 36°58' W 076°04'0 0.0
2014-Mar-30 18:33N 36°58' W 076°04'0 0.0
2014-Mar-30 17:30N 36°58' W 076°04'0 0.0
2014-Mar-30 16:33N 36°58' W 076°04'0 0.0
2014-Mar-30 15:30N 36°58' W 076°04'0 0.3
2014-Mar-30 14:33N 36°58' W 076°05'0 0.0
2014-Mar-30 13:33N 36°58' W 076°05'0 0.0
2014-Mar-30 12:33N 36°58' W 076°05'0 0.0
2014-Mar-30 03:30N 36°58' W 076°05'0 0.0
2014-Mar-30 02:33N 36°58' W 076°05'0 0.0
2014-Mar-30 01:30N 36°58' W 076°05'0 0.0
2014-Mar-30 00:33N 36°58' W 076°05'0 0.0
2014-Mar-29 23:33N 36°58' W 076°05'0 0.0
2014-Mar-29 22:32N 36°58' W 076°05'0 0.0
2014-Mar-29 21:33N 36°58' W 076°05'0 0.1
2014-Mar-29 20:33N 36°58' W 076°05'0 0.2
2014-Mar-29 19:33N 36°58' W 076°04'0 0.0
2014-Mar-29 18:33N 36°58' W 076°04'0 0.0
2014-Mar-29 17:29N 36°58' W 076°04'0 0.1
2014-Mar-29 16:33N 36°58' W 076°04'0 0.1
2014-Mar-29 15:33N 36°58' W 076°04'0 0.1
2014-Mar-29 14:33N 36°58' W 076°05'0 0.0
2014-Mar-29 13:24N 36°58' W 076°05'0 0.0
2014-Mar-29 12:30N 36°58' W 076°05'0 0.0
2014-Mar-29 11:32N 36°58' W 076°05'0 0.0
2014-Mar-29 10:33N 36°58' W 076°05'0 0.0
2014-Mar-29 09:32N 36°58' W 076°05'0 0.2
2014-Mar-29 08:33N 36°58' W 076°04'0 0.0
2014-Mar-29 07:30N 36°58' W 076°04'0 0.0
2014-Mar-29 06:29N 36°58' W 076°04'0 0.0
2014-Mar-29 05:32N 36°58' W 076°04'0 0.0
2014-Mar-29 04:33N 36°58' W 076°04'0 0.1
2014-Mar-29 03:33N 36°58' W 076°04'0 0.1
2014-Mar-29 02:33N 36°58' W 076°04'0 0.1
2014-Mar-29 01:33N 36°58' W 076°04'0 0.0
2014-Mar-29 00:33N 36°58' W 076°05'0 0.1
2014-Mar-28 23:33N 36°58' W 076°05'0 0.0
2014-Mar-28 22:33N 36°58' W 076°05'0 0.1
2014-Mar-28 21:33N 36°58' W 076°04'0 0.1
2014-Mar-28 20:32N 36°58' W 076°04'0 0.0
2014-Mar-28 19:33N 36°58' W 076°04'  

Dump ship's entire track history

sailing weather and tide predictions

Trabzon — 9HA2783 — position and weather